sensor_id;sensor_type;location;lat;lon;timestamp;P1;durP1;ratioP1;P2;durP2;ratioP2
27313;SDS011;14800;48.174;9.798;2022-09-17T00:01:55;0.50;;;0.40;;
27313;SDS011;14800;48.174;9.798;2022-09-17T00:04:20;0.50;;;0.45;;
27313;SDS011;14800;48.174;9.798;2022-09-17T00:06:46;0.98;;;0.55;;
27313;SDS011;14800;48.174;9.798;2022-09-17T00:09:11;5.97;;;0.63;;
27313;SDS011;14800;48.174;9.798;2022-09-17T00:11:38;0.93;;;0.50;;
27313;SDS011;14800;48.174;9.798;2022-09-17T00:14:06;1.58;;;0.40;;
27313;SDS011;14800;48.174;9.798;2022-09-17T00:16:37;0.52;;;0.50;;
27313;SDS011;14800;48.174;9.798;2022-09-17T00:19:05;0.30;;;0.30;;
27313;SDS011;14800;48.174;9.798;2022-09-17T00:21:33;0.82;;;0.30;;
27313;SDS011;14800;48.174;9.798;2022-09-17T00:23:59;0.40;;;0.40;;
27313;SDS011;14800;48.174;9.798;2022-09-17T00:26:27;0.82;;;0.40;;
27313;SDS011;14800;48.174;9.798;2022-09-17T00:28:53;2.50;;;0.55;;
27313;SDS011;14800;48.174;9.798;2022-09-17T00:31:20;1.05;;;0.40;;
27313;SDS011;14800;48.174;9.798;2022-09-17T00:33:47;0.30;;;0.30;;
27313;SDS011;14800;48.174;9.798;2022-09-17T00:36:14;1.25;;;0.30;;
27313;SDS011;14800;48.174;9.798;2022-09-17T00:38:40;0.82;;;0.50;;
27313;SDS011;14800;48.174;9.798;2022-09-17T00:41:06;2.03;;;0.60;;
27313;SDS011;14800;48.174;9.798;2022-09-17T00:43:33;2.25;;;0.70;;
27313;SDS011;14800;48.174;9.798;2022-09-17T00:46:02;1.90;;;0.60;;
27313;SDS011;14800;48.174;9.798;2022-09-17T00:48:35;1.88;;;0.50;;
27313;SDS011;14800;48.174;9.798;2022-09-17T00:51:01;0.77;;;0.70;;
27313;SDS011;14800;48.174;9.798;2022-09-17T00:53:30;1.27;;;0.50;;
27313;SDS011;14800;48.174;9.798;2022-09-17T00:55:58;0.70;;;0.50;;
27313;SDS011;14800;48.174;9.798;2022-09-17T00:58:35;3.20;;;0.47;;
27313;SDS011;14800;48.174;9.798;2022-09-17T01:01:02;0.98;;;0.60;;
27313;SDS011;14800;48.174;9.798;2022-09-17T01:03:28;0.73;;;0.60;;
27313;SDS011;14800;48.174;9.798;2022-09-17T01:30:19;0.50;;;0.50;;
27313;SDS011;14800;48.174;9.798;2022-09-17T01:32:59;0.50;;;0.50;;
27313;SDS011;14800;48.174;9.798;2022-09-17T01:35:50;0.98;;;0.50;;
27313;SDS011;14800;48.174;9.798;2022-09-17T01:38:49;0.43;;;0.43;;
27313;SDS011;14800;48.174;9.798;2022-09-17T01:41:27;0.83;;;0.47;;
27313;SDS011;14800;48.174;9.798;2022-09-17T01:44:21;0.63;;;0.40;;
27313;SDS011;14800;48.174;9.798;2022-09-17T01:46:49;0.43;;;0.40;;
27313;SDS011;14800;48.174;9.798;2022-09-17T01:49:36;1.83;;;0.40;;
27313;SDS011;14800;48.174;9.798;2022-09-17T01:52:03;0.73;;;0.40;;
27313;SDS011;14800;48.174;9.798;2022-09-17T01:54:39;0.45;;;0.43;;
27313;SDS011;14800;48.174;9.798;2022-09-17T01:57:14;0.40;;;0.40;;
27313;SDS011;14800;48.174;9.798;2022-09-17T01:59:58;0.85;;;0.47;;
27313;SDS011;14800;48.174;9.798;2022-09-17T02:02:34;0.40;;;0.40;;
27313;SDS011;14800;48.174;9.798;2022-09-17T02:05:10;0.85;;;0.50;;
27313;SDS011;14800;48.174;9.798;2022-09-17T02:07:45;1.50;;;0.50;;
27313;SDS011;14800;48.174;9.798;2022-09-17T02:10:17;0.85;;;0.50;;
27313;SDS011;14800;48.174;9.798;2022-09-17T02:12:49;0.50;;;0.50;;
27313;SDS011;14800;48.174;9.798;2022-09-17T02:15:34;4.60;;;0.55;;
27313;SDS011;14800;48.174;9.798;2022-09-17T02:20:33;0.52;;;0.40;;
27313;SDS011;14800;48.174;9.798;2022-09-17T02:23:07;1.38;;;0.40;;
27313;SDS011;14800;48.174;9.798;2022-09-17T02:25:51;1.15;;;0.50;;
27313;SDS011;14800;48.174;9.798;2022-09-17T02:28:35;2.10;;;0.70;;
27313;SDS011;14800;48.174;9.798;2022-09-17T02:31:18;0.50;;;0.50;;
27313;SDS011;14800;48.174;9.798;2022-09-17T02:33:46;0.68;;;0.52;;
27313;SDS011;14800;48.174;9.798;2022-09-17T02:36:15;0.60;;;0.43;;
27313;SDS011;14800;48.174;9.798;2022-09-17T02:38:42;2.13;;;0.50;;
27313;SDS011;14800;48.174;9.798;2022-09-17T02:43:50;0.70;;;0.55;;
27313;SDS011;14800;48.174;9.798;2022-09-17T02:46:30;1.52;;;0.50;;
27313;SDS011;14800;48.174;9.798;2022-09-17T02:51:37;0.73;;;0.60;;
27313;SDS011;14800;48.174;9.798;2022-09-17T02:59:36;1.35;;;0.70;;
27313;SDS011;14800;48.174;9.798;2022-09-17T03:02:12;1.50;;;0.70;;
27313;SDS011;14800;48.174;9.798;2022-09-17T03:05:01;0.73;;;0.55;;
27313;SDS011;14800;48.174;9.798;2022-09-17T03:07:28;1.40;;;0.55;;
27313;SDS011;14800;48.174;9.798;2022-09-17T03:09:53;1.25;;;0.73;;
27313;SDS011;14800;48.174;9.798;2022-09-17T03:12:19;1.30;;;0.57;;
27313;SDS011;14800;48.174;9.798;2022-09-17T03:14:46;2.60;;;0.88;;
27313;SDS011;14800;48.174;9.798;2022-09-17T03:17:11;1.00;;;0.60;;
27313;SDS011;14800;48.174;9.798;2022-09-17T03:19:38;0.90;;;0.60;;
27313;SDS011;14800;48.174;9.798;2022-09-17T03:22:04;1.00;;;0.52;;
27313;SDS011;14800;48.174;9.798;2022-09-17T03:24:29;1.58;;;0.63;;
27313;SDS011;14800;48.174;9.798;2022-09-17T03:26:55;1.00;;;0.65;;
27313;SDS011;14800;48.174;9.798;2022-09-17T03:29:21;2.00;;;0.52;;
27313;SDS011;14800;48.174;9.798;2022-09-17T03:31:46;0.88;;;0.80;;
27313;SDS011;14800;48.174;9.798;2022-09-17T03:34:12;1.38;;;0.70;;
27313;SDS011;14800;48.174;9.798;2022-09-17T03:36:37;1.20;;;1.00;;
27313;SDS011;14800;48.174;9.798;2022-09-17T03:39:03;1.00;;;0.95;;
27313;SDS011;14800;48.174;9.798;2022-09-17T03:41:28;5.95;;;0.90;;
27313;SDS011;14800;48.174;9.798;2022-09-17T03:43:54;2.67;;;1.13;;
27313;SDS011;14800;48.174;9.798;2022-09-17T03:46:20;1.40;;;1.20;;
27313;SDS011;14800;48.174;9.798;2022-09-17T03:48:45;1.20;;;1.10;;
27313;SDS011;14800;48.174;9.798;2022-09-17T03:51:11;1.20;;;1.10;;
27313;SDS011;14800;48.174;9.798;2022-09-17T03:53:36;1.40;;;1.00;;
27313;SDS011;14800;48.174;9.798;2022-09-17T03:56:03;1.00;;;0.93;;
27313;SDS011;14800;48.174;9.798;2022-09-17T03:58:31;1.30;;;1.20;;
27313;SDS011;14800;48.174;9.798;2022-09-17T04:00:57;1.48;;;0.85;;
27313;SDS011;14800;48.174;9.798;2022-09-17T04:03:26;1.13;;;1.02;;
27313;SDS011;14800;48.174;9.798;2022-09-17T04:05:52;3.75;;;0.98;;
27313;SDS011;14800;48.174;9.798;2022-09-17T04:08:18;3.42;;;1.10;;
27313;SDS011;14800;48.174;9.798;2022-09-17T04:10:44;1.10;;;1.00;;
27313;SDS011;14800;48.174;9.798;2022-09-17T04:13:11;1.38;;;1.08;;
27313;SDS011;14800;48.174;9.798;2022-09-17T04:15:38;1.23;;;0.93;;
27313;SDS011;14800;48.174;9.798;2022-09-17T04:18:04;2.90;;;1.35;;
27313;SDS011;14800;48.174;9.798;2022-09-17T04:20:29;1.30;;;1.20;;
27313;SDS011;14800;48.174;9.798;2022-09-17T04:22:55;1.17;;;1.00;;
27313;SDS011;14800;48.174;9.798;2022-09-17T04:25:21;0.80;;;0.80;;
27313;SDS011;14800;48.174;9.798;2022-09-17T04:27:47;2.10;;;1.00;;
27313;SDS011;14800;48.174;9.798;2022-09-17T04:30:13;1.52;;;0.90;;
27313;SDS011;14800;48.174;9.798;2022-09-17T04:32:39;3.38;;;0.88;;
27313;SDS011;14800;48.174;9.798;2022-09-17T04:35:05;1.15;;;0.80;;
27313;SDS011;14800;48.174;9.798;2022-09-17T04:37:31;2.42;;;0.90;;
27313;SDS011;14800;48.174;9.798;2022-09-17T04:39:56;2.67;;;0.90;;
27313;SDS011;14800;48.174;9.798;2022-09-17T04:42:22;1.67;;;0.90;;
27313;SDS011;14800;48.174;9.798;2022-09-17T04:44:47;1.35;;;0.93;;
27313;SDS011;14800;48.174;9.798;2022-09-17T04:47:13;3.05;;;0.90;;
27313;SDS011;14800;48.174;9.798;2022-09-17T04:49:39;0.80;;;0.80;;
27313;SDS011;14800;48.174;9.798;2022-09-17T04:52:04;4.10;;;1.10;;
27313;SDS011;14800;48.174;9.798;2022-09-17T04:54:30;1.67;;;0.90;;
27313;SDS011;14800;48.174;9.798;2022-09-17T04:56:56;1.23;;;0.90;;
27313;SDS011;14800;48.174;9.798;2022-09-17T04:59:21;1.10;;;1.00;;
27313;SDS011;14800;48.174;9.798;2022-09-17T05:01:47;1.02;;;0.80;;
27313;SDS011;14800;48.174;9.798;2022-09-17T05:04:13;1.63;;;1.00;;
27313;SDS011;14800;48.174;9.798;2022-09-17T05:06:39;1.30;;;0.90;;
27313;SDS011;14800;48.174;9.798;2022-09-17T05:09:04;2.67;;;0.90;;
27313;SDS011;14800;48.174;9.798;2022-09-17T05:11:30;1.88;;;0.80;;
27313;SDS011;14800;48.174;9.798;2022-09-17T05:13:55;1.65;;;0.80;;
27313;SDS011;14800;48.174;9.798;2022-09-17T05:16:21;1.48;;;0.80;;
27313;SDS011;14800;48.174;9.798;2022-09-17T05:18:47;1.05;;;0.60;;
27313;SDS011;14800;48.174;9.798;2022-09-17T05:21:13;3.15;;;0.75;;
27313;SDS011;14800;48.174;9.798;2022-09-17T05:23:39;1.20;;;0.55;;
27313;SDS011;14800;48.174;9.798;2022-09-17T05:26:05;1.27;;;0.50;;
27313;SDS011;14800;48.174;9.798;2022-09-17T05:28:30;1.40;;;0.50;;
27313;SDS011;14800;48.174;9.798;2022-09-17T05:30:59;0.82;;;0.30;;
27313;SDS011;14800;48.174;9.798;2022-09-17T05:33:25;1.92;;;0.63;;
27313;SDS011;14800;48.174;9.798;2022-09-17T05:35:51;1.48;;;0.60;;
27313;SDS011;14800;48.174;9.798;2022-09-17T05:38:17;1.10;;;0.52;;
27313;SDS011;14800;48.174;9.798;2022-09-17T05:40:43;2.25;;;0.65;;
27313;SDS011;14800;48.174;9.798;2022-09-17T05:43:09;1.23;;;0.50;;
27313;SDS011;14800;48.174;9.798;2022-09-17T05:45:35;1.80;;;0.70;;
27313;SDS011;14800;48.174;9.798;2022-09-17T05:48:02;5.45;;;0.60;;
27313;SDS011;14800;48.174;9.798;2022-09-17T05:50:29;0.93;;;0.52;;
27313;SDS011;14800;48.174;9.798;2022-09-17T05:52:55;1.08;;;0.60;;
27313;SDS011;14800;48.174;9.798;2022-09-17T05:55:22;1.25;;;0.50;;
27313;SDS011;14800;48.174;9.798;2022-09-17T05:57:48;1.65;;;0.70;;
27313;SDS011;14800;48.174;9.798;2022-09-17T06:00:14;2.47;;;0.57;;
27313;SDS011;14800;48.174;9.798;2022-09-17T06:02:40;1.20;;;0.60;;
27313;SDS011;14800;48.174;9.798;2022-09-17T06:05:06;2.13;;;0.50;;
27313;SDS011;14800;48.174;9.798;2022-09-17T06:07:36;1.15;;;0.50;;
27313;SDS011;14800;48.174;9.798;2022-09-17T06:10:03;1.40;;;0.73;;
27313;SDS011;14800;48.174;9.798;2022-09-17T06:12:30;2.25;;;0.70;;
27313;SDS011;14800;48.174;9.798;2022-09-17T06:14:56;1.05;;;0.65;;
27313;SDS011;14800;48.174;9.798;2022-09-17T06:17:21;1.85;;;0.65;;
27313;SDS011;14800;48.174;9.798;2022-09-17T06:19:47;1.63;;;0.60;;
27313;SDS011;14800;48.174;9.798;2022-09-17T06:22:13;2.40;;;0.60;;
27313;SDS011;14800;48.174;9.798;2022-09-17T06:24:38;2.88;;;1.00;;
27313;SDS011;14800;48.174;9.798;2022-09-17T06:27:04;1.48;;;1.15;;
27313;SDS011;14800;48.174;9.798;2022-09-17T06:29:30;4.78;;;2.35;;
27313;SDS011;14800;48.174;9.798;2022-09-17T06:31:55;2.72;;;1.90;;
27313;SDS011;14800;48.174;9.798;2022-09-17T06:34:21;3.65;;;1.40;;
27313;SDS011;14800;48.174;9.798;2022-09-17T06:36:49;1.85;;;0.90;;
27313;SDS011;14800;48.174;9.798;2022-09-17T06:39:15;1.90;;;0.80;;
27313;SDS011;14800;48.174;9.798;2022-09-17T06:41:41;1.20;;;0.80;;
27313;SDS011;14800;48.174;9.798;2022-09-17T06:44:07;2.90;;;0.90;;
27313;SDS011;14800;48.174;9.798;2022-09-17T06:46:33;2.22;;;0.80;;
27313;SDS011;14800;48.174;9.798;2022-09-17T06:48:58;1.02;;;0.63;;
27313;SDS011;14800;48.174;9.798;2022-09-17T06:51:24;2.17;;;0.90;;
27313;SDS011;14800;48.174;9.798;2022-09-17T06:53:50;0.70;;;0.63;;
27313;SDS011;14800;48.174;9.798;2022-09-17T06:56:15;1.88;;;0.65;;
27313;SDS011;14800;48.174;9.798;2022-09-17T06:58:41;2.25;;;0.60;;
27313;SDS011;14800;48.174;9.798;2022-09-17T07:01:08;1.67;;;0.70;;
27313;SDS011;14800;48.174;9.798;2022-09-17T07:03:35;1.10;;;0.63;;
27313;SDS011;14800;48.174;9.798;2022-09-17T07:06:01;1.40;;;0.60;;
27313;SDS011;14800;48.174;9.798;2022-09-17T07:08:27;1.23;;;0.70;;
27313;SDS011;14800;48.174;9.798;2022-09-17T07:10:56;1.42;;;0.60;;
27313;SDS011;14800;48.174;9.798;2022-09-17T07:13:22;3.25;;;0.80;;
27313;SDS011;14800;48.174;9.798;2022-09-17T07:15:55;1.95;;;0.75;;
27313;SDS011;14800;48.174;9.798;2022-09-17T07:18:23;4.13;;;0.93;;
27313;SDS011;14800;48.174;9.798;2022-09-17T07:20:59;3.42;;;1.27;;
27313;SDS011;14800;48.174;9.798;2022-09-17T07:23:26;5.65;;;1.20;;
27313;SDS011;14800;48.174;9.798;2022-09-17T07:25:55;4.60;;;1.02;;
27313;SDS011;14800;48.174;9.798;2022-09-17T07:28:23;4.03;;;1.20;;
27313;SDS011;14800;48.174;9.798;2022-09-17T07:30:50;4.75;;;1.50;;
27313;SDS011;14800;48.174;9.798;2022-09-17T07:33:16;5.03;;;1.20;;
27313;SDS011;14800;48.174;9.798;2022-09-17T07:35:57;1.95;;;0.80;;
27313;SDS011;14800;48.174;9.798;2022-09-17T07:38:24;5.85;;;1.17;;
27313;SDS011;14800;48.174;9.798;2022-09-17T07:40:57;3.90;;;1.23;;
27313;SDS011;14800;48.174;9.798;2022-09-17T07:43:24;2.80;;;1.08;;
27313;SDS011;14800;48.174;9.798;2022-09-17T07:45:51;3.60;;;0.88;;
27313;SDS011;14800;48.174;9.798;2022-09-17T07:48:17;4.32;;;0.90;;
27313;SDS011;14800;48.174;9.798;2022-09-17T07:50:44;5.53;;;1.20;;
27313;SDS011;14800;48.174;9.798;2022-09-17T07:53:09;1.20;;;0.77;;
27313;SDS011;14800;48.174;9.798;2022-09-17T07:55:35;3.67;;;1.00;;
27313;SDS011;14800;48.174;9.798;2022-09-17T07:58:01;1.90;;;0.60;;
27313;SDS011;14800;48.174;9.798;2022-09-17T08:00:26;3.95;;;0.80;;
27313;SDS011;14800;48.174;9.798;2022-09-17T08:02:52;2.65;;;1.13;;
27313;SDS011;14800;48.174;9.798;2022-09-17T08:05:19;3.40;;;0.73;;
27313;SDS011;14800;48.174;9.798;2022-09-17T08:07:49;2.60;;;0.82;;
27313;SDS011;14800;48.174;9.798;2022-09-17T08:10:15;6.38;;;1.10;;
27313;SDS011;14800;48.174;9.798;2022-09-17T08:12:45;2.47;;;0.60;;
27313;SDS011;14800;48.174;9.798;2022-09-17T08:15:17;3.33;;;1.08;;
27313;SDS011;14800;48.174;9.798;2022-09-17T08:17:43;4.65;;;1.00;;
27313;SDS011;14800;48.174;9.798;2022-09-17T08:20:10;3.33;;;0.63;;
27313;SDS011;14800;48.174;9.798;2022-09-17T08:22:36;5.55;;;0.90;;
27313;SDS011;14800;48.174;9.798;2022-09-17T08:25:02;3.22;;;0.70;;
27313;SDS011;14800;48.174;9.798;2022-09-17T08:27:29;4.85;;;0.82;;
27313;SDS011;14800;48.174;9.798;2022-09-17T08:29:55;1.33;;;0.75;;
27313;SDS011;14800;48.174;9.798;2022-09-17T08:32:20;3.22;;;0.60;;
27313;SDS011;14800;48.174;9.798;2022-09-17T08:34:46;1.33;;;0.57;;
27313;SDS011;14800;48.174;9.798;2022-09-17T08:37:11;1.60;;;0.60;;
27313;SDS011;14800;48.174;9.798;2022-09-17T08:39:37;5.65;;;0.98;;
27313;SDS011;14800;48.174;9.798;2022-09-17T08:44:45;5.32;;;0.85;;
27313;SDS011;14800;48.174;9.798;2022-09-17T08:49:54;1.80;;;0.60;;
27313;SDS011;14800;48.174;9.798;2022-09-17T09:00:54;2.15;;;0.60;;
27313;SDS011;14800;48.174;9.798;2022-09-17T09:06:16;5.30;;;1.17;;
27313;SDS011;14800;48.174;9.798;2022-09-17T09:08:47;1.45;;;0.88;;
27313;SDS011;14800;48.174;9.798;2022-09-17T09:11:21;3.00;;;0.90;;
27313;SDS011;14800;48.174;9.798;2022-09-17T09:13:52;2.95;;;0.60;;
27313;SDS011;14800;48.174;9.798;2022-09-17T09:16:24;1.02;;;0.45;;
27313;SDS011;14800;48.174;9.798;2022-09-17T09:18:57;2.53;;;0.60;;
27313;SDS011;14800;48.174;9.798;2022-09-17T09:21:29;2.30;;;0.55;;
27313;SDS011;14800;48.174;9.798;2022-09-17T09:26:47;2.22;;;0.80;;
27313;SDS011;14800;48.174;9.798;2022-09-17T09:32:03;1.83;;;0.60;;
27313;SDS011;14800;48.174;9.798;2022-09-17T09:34:36;1.02;;;0.50;;
27313;SDS011;14800;48.174;9.798;2022-09-17T09:37:22;1.13;;;0.30;;
27313;SDS011;14800;48.174;9.798;2022-09-17T09:39:50;1.40;;;0.40;;
27313;SDS011;14800;48.174;9.798;2022-09-17T09:42:26;0.38;;;0.20;;
27313;SDS011;14800;48.174;9.798;2022-09-17T09:48:06;1.50;;;0.35;;
27313;SDS011;14800;48.174;9.798;2022-09-17T09:50:59;1.73;;;0.30;;
27313;SDS011;14800;48.174;9.798;2022-09-17T09:59:18;1.02;;;0.30;;
27313;SDS011;14800;48.174;9.798;2022-09-17T10:01:44;2.05;;;0.30;;
27313;SDS011;14800;48.174;9.798;2022-09-17T10:04:15;1.63;;;0.52;;
27313;SDS011;14800;48.174;9.798;2022-09-17T10:06:44;3.72;;;0.77;;
27313;SDS011;14800;48.174;9.798;2022-09-17T10:09:11;1.67;;;0.43;;
27313;SDS011;14800;48.174;9.798;2022-09-17T10:11:38;1.60;;;0.32;;
27313;SDS011;14800;48.174;9.798;2022-09-17T10:14:23;3.03;;;0.60;;
27313;SDS011;14800;48.174;9.798;2022-09-17T10:22:39;1.88;;;0.60;;
27313;SDS011;14800;48.174;9.798;2022-09-17T10:27:54;2.88;;;0.63;;
27313;SDS011;14800;48.174;9.798;2022-09-17T10:30:21;4.80;;;0.80;;
27313;SDS011;14800;48.174;9.798;2022-09-17T10:33:09;1.10;;;0.30;;
27313;SDS011;14800;48.174;9.798;2022-09-17T10:35:41;2.13;;;0.50;;
27313;SDS011;14800;48.174;9.798;2022-09-17T10:41:16;4.03;;;0.60;;
27313;SDS011;14800;48.174;9.798;2022-09-17T10:43:46;1.92;;;0.75;;
27313;SDS011;14800;48.174;9.798;2022-09-17T10:46:19;2.28;;;0.60;;
27313;SDS011;14800;48.174;9.798;2022-09-17T10:48:52;2.92;;;0.60;;
27313;SDS011;14800;48.174;9.798;2022-09-17T10:51:30;2.50;;;0.50;;
27313;SDS011;14800;48.174;9.798;2022-09-17T10:56:39;2.97;;;0.63;;
27313;SDS011;14800;48.174;9.798;2022-09-17T11:12:30;4.65;;;0.70;;
27313;SDS011;14800;48.174;9.798;2022-09-17T11:26:23;5.72;;;1.17;;
27313;SDS011;14800;48.174;9.798;2022-09-17T11:34:34;2.50;;;0.60;;
27313;SDS011;14800;48.174;9.798;2022-09-17T11:37:38;4.40;;;0.88;;
27313;SDS011;14800;48.174;9.798;2022-09-17T11:40:11;4.80;;;0.88;;
27313;SDS011;14800;48.174;9.798;2022-09-17T11:42:48;3.47;;;0.60;;
27313;SDS011;14800;48.174;9.798;2022-09-17T11:45:25;6.97;;;1.10;;
27313;SDS011;14800;48.174;9.798;2022-09-17T11:47:57;3.70;;;1.00;;
27313;SDS011;14800;48.174;9.798;2022-09-17T11:50:29;3.70;;;0.93;;
27313;SDS011;14800;48.174;9.798;2022-09-17T11:55:41;1.98;;;0.80;;
